Time;durP1;ratioP1;P1;durP2;ratioP2;P2;SDS_P1;SDS_P2;PMS_P1;PMS_P2;Temp;Humidity;BMP_temperature;BMP_pressure;BME280_temperature;BME280_humidity;BME280_pressure;Samples;Min_cycle;Max_cycle;Signal;HPM_P1;HPM_P2
2023/01/22 00:00:34;;;;;;;2.70;1.50;;;;;;;0.87;33.87;91985.72;4998809;28;20085;-79
2023/01/22 00:03:00;;;;;;;3.50;1.88;;;;;;;0.80;33.63;91970.44;4998769;28;20480;-79
2023/01/22 00:05:28;;;;;;;3.72;1.60;;;;;;;0.82;34.46;91986.44;5014798;28;20073;-79
2023/01/22 00:07:54;;;;;;;2.55;1.52;;;;;;;0.83;33.92;91980.28;5018002;28;20103;-78
2023/01/22 00:10:20;;;;;;;4.07;1.90;;;;;;;0.75;34.09;91992.78;5018179;28;20014;-78
2023/01/22 00:16:40;;;;;;;5.70;1.40;;;;;;;0.96;34.20;91999.75;5017827;28;20084;-78
2023/01/22 00:22:27;;;;;;;4.38;1.40;;;;;;;0.71;34.10;91986.53;5017825;28;20488;-78
2023/01/22 00:24:53;;;;;;;2.85;1.50;;;;;;;0.74;34.22;92004.09;4999984;28;20050;-79
2023/01/22 00:31:14;;;;;;;2.97;1.70;;;;;;;0.79;33.88;91991.28;5017678;28;20040;-80
2023/01/22 00:37:34;;;;;;;3.25;1.65;;;;;;;1.05;32.92;91992.38;4997719;28;20151;-79
2023/01/22 00:40:20;;;;;;;2.47;1.35;;;;;;;0.86;34.03;91994.47;4997677;28;20038;-78
2023/01/22 00:42:45;;;;;;;3.05;1.60;;;;;;;0.75;34.28;91998.72;4997113;28;20048;-79
2023/01/22 00:45:14;;;;;;;2.15;1.40;;;;;;;0.75;34.09;91988.41;4998119;28;20030;-78
2023/01/22 00:55:29;;;;;;;2.58;1.42;;;;;;;0.80;34.09;92005.72;5036697;28;20048;-79
2023/01/22 01:01:30;;;;;;;2.00;1.20;;;;;;;0.76;34.46;91999.47;4996279;28;20433;-79
2023/01/22 01:04:34;;;;;;;1.70;1.20;;;;;;;0.98;34.22;92000.28;4980169;28;20062;-79
2023/01/22 01:07:00;;;;;;;2.45;1.40;;;;;;;1.01;33.36;91994.66;5008111;28;20037;-78
2023/01/22 01:09:26;;;;;;;2.42;1.30;;;;;;;1.17;33.86;91989.66;5015621;28;20412;-79
2023/01/22 01:11:55;;;;;;;2.60;1.45;;;;;;;1.10;33.90;91989.84;5017064;28;20053;-78
2023/01/22 01:14:22;;;;;;;2.17;1.30;;;;;;;1.01;34.28;92012.72;5017354;28;20057;-78
2023/01/22 01:16:49;;;;;;;2.20;1.30;;;;;;;1.12;33.96;91997.34;5016891;28;20510;-78
2023/01/22 01:22:40;;;;;;;2.50;1.42;;;;;;;0.93;34.14;91984.00;5016248;28;20030;-79
2023/01/22 01:25:06;;;;;;;3.75;1.45;;;;;;;0.92;34.50;91990.94;5015452;28;20447;-78
2023/01/22 01:31:26;;;;;;;1.85;1.20;;;;;;;0.81;34.23;91991.81;5016663;28;20121;-78
2023/01/22 01:34:12;;;;;;;2.05;1.20;;;;;;;0.79;34.75;92002.38;5015894;28;20080;-78
2023/01/22 01:36:38;;;;;;;3.63;1.40;;;;;;;0.83;34.87;91985.44;5015266;28;20030;-78
2023/01/22 01:39:03;;;;;;;2.80;1.58;;;;;;;0.85;35.07;91992.91;5015239;28;20492;-78
2023/01/22 01:41:31;;;;;;;3.30;1.17;;;;;;;0.79;34.92;91986.16;5015146;28;20038;-79
2023/01/22 01:44:14;;;;;;;2.25;1.33;;;;;;;0.69;35.36;91991.16;5013859;28;20048;-79
2023/01/22 01:46:44;;;;;;;3.13;1.80;;;;;;;0.65;35.23;92001.13;4998543;28;20128;-78
2023/01/22 01:49:26;;;;;;;2.35;1.30;;;;;;;0.66;34.90;92002.72;5015076;28;20034;-79
2023/01/22 01:52:30;;;;;;;2.90;1.48;;;;;;;0.72;35.09;91999.19;5015658;28;20100;-78
2023/01/22 01:54:57;;;;;;;2.50;1.40;;;;;;;0.62;35.52;92004.19;5016427;28;20443;-78
2023/01/22 01:57:26;;;;;;;2.05;1.30;;;;;;;0.56;35.27;91994.84;4999200;28;20049;-78
2023/01/22 01:59:56;;;;;;;3.17;1.40;;;;;;;0.51;35.57;91992.97;5015283;28;20034;-79
2023/01/22 02:02:22;;;;;;;1.38;1.08;;;;;;;0.58;35.55;92001.31;5014733;28;20040;-78
2023/01/22 02:04:49;;;;;;;2.05;1.30;;;;;;;0.64;35.36;92001.41;5015611;28;20042;-79
2023/01/22 02:11:09;;;;;;;2.33;1.15;;;;;;;0.48;36.00;91996.03;5020244;28;20036;-78
2023/01/22 02:13:39;;;;;;;2.67;1.40;;;;;;;0.44;35.83;92004.47;5018911;28;20096;-78
2023/01/22 02:16:06;;;;;;;2.47;1.35;;;;;;;0.54;35.58;92002.00;5017574;28;20097;-76
2023/01/22 02:18:32;;;;;;;3.28;1.58;;;;;;;0.47;35.86;91997.03;5016204;28;20042;-77
2023/01/22 02:24:52;;;;;;;;;;;;;;;0.41;35.62;92006.50;5018130;28;20044;-78
2023/01/22 02:27:37;;;;;;;2.47;1.42;;;;;;;0.40;36.25;92017.00;5016792;28;20391;-78
2023/01/22 02:30:05;;;;;;;2.05;1.30;;;;;;;0.33;36.17;92016.41;5013771;28;20488;-78
2023/01/22 02:32:31;;;;;;;2.83;1.70;;;;;;;0.28;36.57;92016.31;4998533;28;20030;-78
2023/01/22 02:38:26;;;;;;;3.90;1.45;;;;;;;0.25;36.22;92015.00;4997230;28;20085;-78
2023/01/22 02:40:52;;;;;;;2.65;1.50;;;;;;;0.21;35.87;92019.06;4998361;28;20027;-77
2023/01/22 02:47:13;;;;;;;2.38;1.35;;;;;;;0.33;36.84;92017.16;5017372;28;20076;-77
2023/01/22 02:57:06;;;;;;;;;;;;;;;0.31;35.70;92008.13;5017935;28;20152;-77
2023/01/22 03:03:26;;;;;;;2.92;1.27;;;;;;;0.31;36.20;92002.97;5017351;28;20036;-78
2023/01/22 03:09:45;;;;;;;1.70;1.20;;;;;;;0.18;36.09;92016.94;5016996;28;20057;-77
2023/01/22 03:26:50;;;;;;;;;;;;;;;0.49;34.70;92033.63;5017204;28;20052;-78
2023/01/22 03:33:11;;;;;;;2.25;1.42;;;;;;;0.30;35.33;92037.47;5016724;28;20488;-77
2023/01/22 03:42:59;;;;;;;2.47;1.48;;;;;;;0.36;35.52;92047.63;5016221;28;20044;-77
2023/01/22 03:49:20;;;;;;;2.40;1.20;;;;;;;0.61;34.47;92033.56;5016917;28;20076;-79
2023/01/22 03:59:52;;;;;;;2.17;1.30;;;;;;;0.47;35.55;92038.22;5034081;28;20036;-78
2023/01/22 04:02:57;;;;;;;2.45;1.45;;;;;;;0.47;35.32;92045.97;5001296;28;20084;-78
2023/01/22 04:05:28;;;;;;;2.58;1.50;;;;;;;0.65;34.98;92033.84;5001854;28;20043;-78
2023/01/22 04:07:55;;;;;;;2.50;1.35;;;;;;;0.70;34.84;92037.28;5017403;28;20040;-78
2023/01/22 04:14:18;;;;;;;2.22;1.40;;;;;;;0.34;35.65;92034.19;5033808;28;20044;-78
2023/01/22 04:24:52;;;;;;;2.38;1.50;;;;;;;0.31;35.58;92044.94;5033459;28;20080;-77
2023/01/22 04:27:17;;;;;;;2.88;1.50;;;;;;;0.25;36.07;92055.41;5014214;28;20053;-77
2023/01/22 04:29:43;;;;;;;2.58;1.60;;;;;;;0.40;35.11;92058.22;5014346;28;20049;-77
2023/01/22 04:32:09;;;;;;;2.97;1.50;;;;;;;0.31;35.56;92065.53;5015424;28;20034;-77
2023/01/22 04:38:47;;;;;;;4.00;1.40;;;;;;;0.12;36.03;92056.50;5022797;28;20105;-78
2023/01/22 04:45:07;;;;;;;2.60;1.40;;;;;;;-0.09;36.81;92070.78;5015777;28;20049;-78
2023/01/22 04:51:28;;;;;;;4.97;1.55;;;;;;;0.13;35.95;92073.50;5014900;28;20041;-78
2023/01/22 04:53:54;;;;;;;3.45;1.58;;;;;;;0.13;36.24;92079.41;4987713;28;20058;-78
2023/01/22 04:56:19;;;;;;;2.88;1.63;;;;;;;0.17;35.45;92070.22;5014060;28;20053;-78
2023/01/22 04:58:46;;;;;;;3.55;1.60;;;;;;;0.09;36.19;92078.34;5015209;28;20042;-78
2023/01/22 05:01:37;;;;;;;3.10;1.60;;;;;;;-0.09;36.35;92060.50;5013422;28;20088;-77
2023/01/22 05:04:03;;;;;;;3.03;1.45;;;;;;;0.06;36.58;92089.06;5013345;28;20041;-78
2023/01/22 05:06:32;;;;;;;2.40;1.40;;;;;;;0.11;36.28;92091.75;5013527;28;20029;-78
2023/01/22 05:09:38;;;;;;;2.78;1.40;;;;;;;0.01;36.12;92096.72;4997029;28;20080;-78
2023/01/22 05:12:05;;;;;;;2.88;1.65;;;;;;;0.08;35.80;92097.34;5013516;28;20080;-77
2023/01/22 05:14:37;;;;;;;3.35;1.48;;;;;;;0.01;35.59;92101.88;4982852;28;20030;-77
2023/01/22 05:20:58;;;;;;;2.85;1.60;;;;;;;0.22;35.70;92104.78;5014767;28;20387;-77
2023/01/22 05:27:21;;;;;;;1.77;1.20;;;;;;;0.38;35.15;92109.97;5014499;28;20542;-77
2023/01/22 05:33:28;;;;;;;2.90;1.50;;;;;;;0.05;36.03;92126.13;5013313;28;20510;-78
2023/01/22 05:36:01;;;;;;;1.48;1.05;;;;;;;0.10;35.94;92128.78;5013713;28;20053;-78
2023/01/22 05:42:21;;;;;;;1.73;1.20;;;;;;;0.15;35.93;92131.44;5015855;28;20447;-77
2023/01/22 05:45:09;;;;;;;2.67;1.50;;;;;;;0.24;35.38;92141.38;4985220;28;20037;-78
2023/01/22 05:47:41;;;;;;;3.95;1.60;;;;;;;0.18;35.19;92137.91;5025157;28;20045;-80
2023/01/22 05:50:27;;;;;;;3.17;1.60;;;;;;;0.39;34.87;92151.94;5029324;28;20049;-79
2023/01/22 05:53:50;;;;;;;4.03;1.90;;;;;;;0.35;34.50;92135.38;5003336;28;20532;-78
2023/01/22 06:00:36;;;;;;;2.60;1.55;;;;;;;0.44;33.97;92146.88;4996939;28;20060;-78
2023/01/22 06:03:25;;;;;;;2.50;1.38;;;;;;;0.41;34.18;92152.50;4980027;28;20062;-78
2023/01/22 06:06:03;;;;;;;2.47;1.50;;;;;;;0.64;34.21;92161.13;4979914;28;20034;-78
2023/01/22 06:08:29;;;;;;;2.25;1.45;;;;;;;0.52;34.34;92153.44;4996359;28;20475;-78
2023/01/22 06:14:24;;;;;;;3.15;1.58;;;;;;;0.57;33.99;92172.34;4996245;28;20050;-77
2023/01/22 06:16:50;;;;;;;2.97;1.33;;;;;;;0.57;34.26;92169.75;4980855;28;20112;-77
2023/01/22 06:23:28;;;;;;;3.20;1.67;;;;;;;0.40;34.39;92186.97;5000364;28;20037;-78
2023/01/22 06:29:48;;;;;;;;;;;;;;;0.31;35.51;92193.50;5017936;28;20125;-77
2023/01/22 06:36:09;;;;;;;3.42;1.60;;;;;;;0.28;34.86;92191.41;5018324;28;20558;-78
2023/01/22 06:42:30;;;;;;;3.63;1.52;;;;;;;0.36;35.05;92194.41;5017924;28;20104;-77
2023/01/22 06:48:49;;;;;;;3.20;1.58;;;;;;;0.47;34.43;92203.06;5016462;28;20096;-78
2023/01/22 07:25:14;;;;;;;4.70;1.83;;;;;;;0.37;40.18;92254.41;5017115;28;20085;-77
2023/01/22 07:27:40;;;;;;;4.43;1.92;;;;;;;0.28;40.29;92255.78;4981836;28;20045;-76
2023/01/22 07:30:06;;;;;;;4.72;2.40;;;;;;;0.37;40.98;92260.31;4981461;28;20037;-78
2023/01/22 07:32:32;;;;;;;5.20;2.55;;;;;;;0.16;41.57;92266.88;4999460;28;20057;-78
2023/01/22 07:34:57;;;;;;;5.50;2.65;;;;;;;0.10;42.74;92265.22;5018401;28;20054;-78
2023/01/22 07:37:23;;;;;;;3.95;2.00;;;;;;;0.11;42.57;92256.50;5016675;28;20407;-78
2023/01/22 07:39:49;;;;;;;6.80;2.30;;;;;;;0.11;41.99;92265.97;4999518;28;20045;-78
2023/01/22 07:42:14;;;;;;;4.32;2.00;;;;;;;0.11;42.49;92271.94;5026578;28;20251;-77
2023/01/22 07:44:40;;;;;;;3.83;2.03;;;;;;;0.15;42.07;92261.94;5035880;28;20102;-78
2023/01/22 07:47:06;;;;;;;3.90;1.67;;;;;;;0.17;40.63;92276.16;5035391;28;20049;-78
2023/01/22 07:49:32;;;;;;;4.53;1.90;;;;;;;0.19;39.63;92276.72;5003331;28;20059;-78
2023/01/22 07:51:57;;;;;;;3.20;1.60;;;;;;;0.22;38.81;92279.84;5000812;28;20038;-79
2023/01/22 07:54:23;;;;;;;5.45;2.20;;;;;;;0.27;38.32;92285.09;5000863;28;20057;-79
2023/01/22 07:57:26;;;;;;;3.25;1.80;;;;;;;0.39;37.33;92293.56;5019424;28;20053;-79
2023/01/22 07:59:51;;;;;;;;;;;;;;;0.43;36.86;92289.53;4991143;28;20170;-78
2023/01/22 08:02:17;;;;;;;3.13;1.70;;;;;;;0.43;38.08;92302.41;4977479;28;20019;-78
2023/01/22 08:04:42;;;;;;;4.47;1.90;;;;;;;0.46;37.26;92294.22;4991567;28;20413;-78
2023/01/22 08:07:18;;;;;;;5.95;2.08;;;;;;;0.50;37.33;92299.72;5007165;28;20038;-78
2023/01/22 08:09:44;;;;;;;3.50;1.80;;;;;;;0.57;37.22;92302.94;5009918;28;20038;-77
2023/01/22 08:12:10;;;;;;;4.10;1.95;;;;;;;0.62;37.42;92303.03;5013954;28;20048;-78
2023/01/22 08:14:35;;;;;;;2.42;1.40;;;;;;;0.66;36.81;92309.28;4993854;28;20065;-79
2023/01/22 08:17:20;;;;;;;3.30;1.50;;;;;;;0.68;36.67;92312.41;4992695;28;20129;-77
2023/01/22 08:19:45;;;;;;;3.05;1.55;;;;;;;0.81;35.12;92317.31;4983016;28;20060;-77
2023/01/22 08:22:11;;;;;;;3.25;1.70;;;;;;;0.80;36.24;92320.88;5016581;28;20496;-78
2023/01/22 08:25:14;;;;;;;3.13;1.67;;;;;;;0.86;35.46;92324.34;5015910;28;20056;-78
2023/01/22 08:27:39;;;;;;;2.25;1.42;;;;;;;0.94;35.07;92323.94;5017137;28;20096;-78
2023/01/22 08:30:06;;;;;;;2.50;1.50;;;;;;;0.99;36.12;92324.06;5018697;28;20069;-78
2023/01/22 08:32:32;;;;;;;2.63;1.50;;;;;;;1.04;36.43;92333.69;5018488;28;20056;-78
2023/01/22 08:34:57;;;;;;;3.55;1.70;;;;;;;1.09;35.80;92338.16;4985544;28;20049;-79
2023/01/22 08:37:23;;;;;;;3.75;2.05;;;;;;;1.16;35.85;92334.41;5015402;28;20140;-79
2023/01/22 08:39:50;;;;;;;2.88;1.70;;;;;;;1.34;36.18;92324.88;5008212;28;20038;-78
2023/01/22 08:42:16;;;;;;;2.80;1.50;;;;;;;1.52;34.50;92336.78;4985193;28;20106;-79
2023/01/22 08:44:41;;;;;;;5.60;2.03;;;;;;;1.61;34.63;92345.69;5016160;28;20092;-78
2023/01/22 08:47:07;;;;;;;3.65;1.80;;;;;;;1.75;34.88;92341.78;5011916;28;20492;-78
2023/01/22 08:49:32;;;;;;;4.05;1.98;;;;;;;1.94;34.75;92349.31;5015528;28;20393;-79
2023/01/22 08:51:58;;;;;;;3.67;1.77;;;;;;;2.16;36.94;92355.31;5013449;28;20053;-78
2023/01/22 08:54:25;;;;;;;3.15;1.75;;;;;;;2.17;36.23;92346.53;5014906;28;20030;-78
2023/01/22 08:56:50;;;;;;;3.63;1.80;;;;;;;4.05;33.44;92355.66;5012138;28;20084;-78
2023/01/22 08:59:16;;;;;;;4.85;2.30;;;;;;;4.86;35.49;92346.75;4996773;28;20054;-77
2023/01/22 09:01:42;;;;;;;4.20;2.20;;;;;;;5.76;31.98;92351.63;4984674;28;20029;-77
2023/01/22 09:04:09;;;;;;;3.97;2.03;;;;;;;5.75;32.21;92353.44;5012137;28;20050;-79
2023/01/22 09:06:36;;;;;;;4.22;1.92;;;;;;;5.63;31.74;92356.28;5011300;28;20042;-78
2023/01/22 09:09:02;;;;;;;4.10;2.00;;;;;;;6.00;33.35;92363.09;5000120;28;20034;-77
2023/01/22 09:11:28;;;;;;;5.20;2.47;;;;;;;7.03;31.40;92357.69;5026121;28;20408;-78
2023/01/22 09:13:58;;;;;;;4.75;2.60;;;;;;;8.72;28.63;92359.84;5007754;28;20058;-79
2023/01/22 09:16:25;;;;;;;4.50;2.35;;;;;;;7.82;29.26;92368.19;5006940;28;20491;-77
2023/01/22 09:18:51;;;;;;;3.60;1.80;;;;;;;7.32;29.57;92363.00;5005069;28;20672;-77
2023/01/22 09:21:17;;;;;;;3.20;1.73;;;;;;;6.96;29.76;92370.16;5020934;28;20037;-77
2023/01/22 09:23:42;;;;;;;4.15;2.33;;;;;;;5.96;31.22;92375.03;4995074;28;20621;-77
2023/01/22 09:26:08;;;;;;;4.43;2.13;;;;;;;6.13;31.59;92377.38;4990388;28;20058;-76
2023/01/22 09:28:34;;;;;;;4.22;1.95;;;;;;;6.35;30.97;92374.50;5002670;28;20061;-77
2023/01/22 09:30:59;;;;;;;4.97;2.30;;;;;;;5.60;31.52;92380.16;4974644;28;20058;-77
2023/01/22 09:33:25;;;;;;;3.90;1.88;;;;;;;5.76;31.79;92387.97;4992033;28;20048;-77
2023/01/22 09:35:50;;;;;;;4.13;2.05;;;;;;;7.51;31.22;92384.75;5012471;28;20041;-80
2023/01/22 09:38:17;;;;;;;4.85;2.20;;;;;;;8.65;29.57;92385.50;5011366;28;20124;-79
2023/01/22 09:40:55;;;;;;;3.53;1.92;;;;;;;8.65;26.63;92382.91;5014144;28;20416;-81
2023/01/22 09:43:24;;;;;;;4.75;1.88;;;;;;;7.52;30.32;92385.56;5024442;28;20357;-79
2023/01/22 09:45:56;;;;;;;4.15;2.00;;;;;;;6.72;32.18;92383.78;5020674;28;20037;-77
2023/01/22 09:48:28;;;;;;;3.20;1.98;;;;;;;6.00;32.22;92399.47;5008957;28;20082;-79
2023/01/22 09:50:54;;;;;;;4.22;1.88;;;;;;;5.60;32.31;92400.94;4995823;28;20041;-79
2023/01/22 09:53:20;;;;;;;4.70;2.33;;;;;;;6.50;31.61;92397.09;4978891;28;20511;-79
2023/01/22 09:55:49;;;;;;;2.50;1.40;;;;;;;6.90;32.32;92394.69;4996837;28;20050;-80
2023/01/22 09:58:24;;;;;;;2.80;1.42;;;;;;;6.37;31.29;92406.22;5004305;28;20030;-79
2023/01/22 10:01:03;;;;;;;3.25;1.70;;;;;;;5.72;31.47;92415.50;4994856;28;20048;-79
2023/01/22 10:03:51;;;;;;;5.95;2.25;;;;;;;5.83;31.99;92409.28;4996142;28;20046;-79
2023/01/22 10:06:21;;;;;;;4.40;2.20;;;;;;;5.54;34.05;92409.78;4995343;28;20085;-79
2023/01/22 10:09:03;;;;;;;5.53;2.20;;;;;;;5.57;31.74;92417.03;5006682;28;20492;-79
2023/01/22 10:11:29;;;;;;;5.75;2.33;;;;;;;6.23;30.67;92418.19;5014091;28;20342;-80
2023/01/22 10:13:58;;;;;;;3.97;1.88;;;;;;;6.41;30.28;92416.88;4997037;28;20054;-79
2023/01/22 10:16:24;;;;;;;9.57;3.92;;;;;;;6.24;30.44;92407.53;5012283;28;20410;-79
2023/01/22 10:19:09;;;;;;;4.45;2.38;;;;;;;6.01;30.69;92411.44;5014389;28;20130;-79
2023/01/22 10:21:47;;;;;;;4.57;2.15;;;;;;;5.53;32.50;92413.41;5013792;28;20126;-79
2023/01/22 10:24:13;;;;;;;24.10;12.25;;;;;;;5.18;32.85;92420.06;5014473;28;20048;-79
2023/01/22 10:26:53;;;;;;;2.75;1.30;;;;;;;5.13;32.94;92406.28;5012004;28;20050;-79
2023/01/22 10:29:21;;;;;;;4.32;2.33;;;;;;;5.15;33.10;92407.56;5015333;28;20050;-79
2023/01/22 10:31:51;;;;;;;4.53;2.58;;;;;;;5.52;33.32;92404.06;5018185;28;20034;-79
2023/01/22 10:34:33;;;;;;;5.63;2.67;;;;;;;4.93;31.65;92412.16;5018828;28;20049;-79
2023/01/22 10:37:09;;;;;;;4.43;2.30;;;;;;;5.42;31.75;92414.41;4998965;28;20085;-79
2023/01/22 10:39:46;;;;;;;4.15;2.10;;;;;;;7.17;29.90;92404.72;5012928;28;20399;-80
2023/01/22 10:42:22;;;;;;;4.90;1.83;;;;;;;8.18;28.66;92399.19;5018460;28;20046;-79
2023/01/22 10:44:49;;;;;;;5.63;3.13;;;;;;;7.34;28.57;92393.97;4999856;28;20181;-79
2023/01/22 10:47:20;;;;;;;2.80;1.52;;;;;;;7.27;29.51;92400.28;5011141;28;20046;-79
2023/01/22 10:49:47;;;;;;;4.90;2.28;;;;;;;6.80;30.24;92400.66;5014974;28;20049;-79
2023/01/22 10:52:38;;;;;;;3.58;1.90;;;;;;;6.49;30.37;92399.97;4997843;28;20120;-79
2023/01/22 10:55:06;;;;;;;2.97;1.83;;;;;;;6.32;30.66;92398.41;4978975;28;20100;-79
2023/01/22 10:57:35;;;;;;;4.65;2.20;;;;;;;6.41;31.08;92403.88;4999802;28;20042;-79
2023/01/22 11:00:09;;;;;;;4.00;2.30;;;;;;;6.18;31.35;92402.59;5011356;28;20086;-79
2023/01/22 11:02:39;;;;;;;3.78;1.98;;;;;;;5.87;31.88;92405.13;5015487;28;20042;-78
2023/01/22 11:05:25;;;;;;;4.50;2.00;;;;;;;5.38;31.16;92398.56;5014835;28;20190;-77
2023/01/22 11:07:56;;;;;;;5.47;2.05;;;;;;;5.09;32.12;92400.03;5020427;28;20034;-79
2023/01/22 11:10:28;;;;;;;4.05;1.73;;;;;;;4.84;32.91;92395.50;5014965;28;20739;-80
2023/01/22 11:12:59;;;;;;;3.53;2.00;;;;;;;4.73;31.90;92405.06;5012130;28;20049;-78
2023/01/22 11:15:42;;;;;;;4.00;1.75;;;;;;;4.45;32.40;92401.00;5013436;28;20376;-79
2023/01/22 11:18:12;;;;;;;;;;;;;;;4.51;32.45;92402.63;5007335;28;20054;-80
2023/01/22 11:20:49;;;;;;;5.13;2.30;;;;;;;4.71;33.43;92397.53;5016005;28;21877;-79
2023/01/22 11:23:14;;;;;;;4.15;1.98;;;;;;;4.96;32.44;92396.09;5014046;28;20037;-80
2023/01/22 11:25:44;;;;;;;23.48;7.90;;;;;;;5.28;32.31;92392.56;5014908;28;20057;-79
2023/01/22 11:28:42;;;;;;;10.50;5.00;;;;;;;5.05;33.98;92396.41;5006490;28;20069;-78
2023/01/22 11:31:10;;;;;;;5.28;2.55;;;;;;;5.25;33.52;92385.31;5008162;28;20133;-79
2023/01/22 11:34:02;;;;;;;4.55;2.17;;;;;;;5.60;33.17;92377.56;4999035;28;20095;-80
2023/01/22 11:36:34;;;;;;;4.57;2.23;;;;;;;5.91;31.50;92369.81;4994576;28;20562;-79
2023/01/22 11:39:13;;;;;;;5.53;2.30;;;;;;;6.30;31.23;92360.72;5008345;28;20042;-79
2023/01/22 11:42:15;;;;;;;5.03;2.50;;;;;;;6.81;30.57;92366.59;5015829;28;20117;-79
2023/01/22 11:44:58;;;;;;;6.53;4.10;;;;;;;6.67;29.89;92363.00;5014911;28;20053;-81
2023/01/22 11:48:13;;;;;;;6.15;2.67;;;;;;;6.23;31.01;92366.97;5014409;28;20046;-81
2023/01/22 11:50:51;;;;;;;4.70;2.15;;;;;;;5.73;31.68;92368.50;4969571;28;20105;-80
2023/01/22 11:53:40;;;;;;;4.03;1.95;;;;;;;5.46;31.94;92368.72;4995140;28;20046;-80
2023/01/22 11:56:20;;;;;;;4.10;1.80;;;;;;;5.63;31.68;92363.31;5010343;28;20654;-81
2023/01/22 11:59:03;;;;;;;8.85;5.07;;;;;;;5.64;31.58;92363.03;4994446;28;20050;-80
2023/01/22 12:01:47;;;;;;;4.50;1.98;;;;;;;5.95;31.89;92365.69;5014103;28;20061;-80
2023/01/22 12:04:31;;;;;;;2.78;1.60;;;;;;;5.84;31.61;92351.13;4994814;28;20049;-78
2023/01/22 12:07:03;;;;;;;6.25;3.33;;;;;;;5.87;32.16;92353.19;5010432;28;20158;-80
2023/01/22 12:10:02;;;;;;;4.97;2.35;;;;;;;5.74;31.00;92354.50;4996885;28;20048;-79
2023/01/22 12:12:56;;;;;;;7.05;3.40;;;;;;;5.78;31.81;92345.13;5009670;28;20064;-79
2023/01/22 12:15:30;;;;;;;4.63;2.05;;;;;;;6.12;31.30;92352.41;4982081;28;20042;-80
2023/01/22 12:18:30;;;;;;;3.08;1.70;;;;;;;5.97;30.25;92352.44;5014335;28;20408;-79
2023/01/22 12:21:07;;;;;;;4.22;1.92;;;;;;;5.92;29.93;92334.22;5009804;28;20065;-79
2023/01/22 12:23:43;;;;;;;3.28;1.80;;;;;;;6.03;30.45;92351.38;5002856;28;20323;-79
2023/01/22 12:26:18;;;;;;;3.92;2.08;;;;;;;5.81;30.71;92342.03;5007692;28;20045;-78
2023/01/22 12:28:51;;;;;;;3.22;1.98;;;;;;;5.64;32.05;92338.91;5005078;28;20053;-79
2023/01/22 12:31:19;;;;;;;2.28;1.15;;;;;;;5.89;31.52;92332.91;5016519;28;20065;-78
2023/01/22 12:33:45;;;;;;;2.38;1.45;;;;;;;6.25;31.46;92325.13;5014366;28;20564;-78
2023/01/22 12:36:15;;;;;;;5.07;2.88;;;;;;;6.20;31.49;92330.34;4980478;28;20121;-79
2023/01/22 12:38:53;;;;;;;13.65;7.72;;;;;;;6.02;32.16;92340.22;5016936;28;20069;-78
2023/01/22 12:41:45;;;;;;;4.40;2.08;;;;;;;6.02;32.44;92334.25;5016850;28;20369;-78
2023/01/22 12:44:20;;;;;;;2.63;1.67;;;;;;;6.03;31.53;92333.19;5010091;28;20038;-78
2023/01/22 12:47:05;;;;;;;4.80;2.38;;;;;;;6.16;31.64;92330.06;5008048;28;20042;-80
2023/01/22 12:49:30;;;;;;;5.20;2.13;;;;;;;6.61;30.72;92333.59;5011994;28;20161;-80
2023/01/22 12:51:59;;;;;;;4.95;2.50;;;;;;;7.09;30.05;92330.56;5010453;28;20116;-79
2023/01/22 12:54:24;;;;;;;4.40;2.22;;;;;;;7.49;29.71;92329.56;4976667;28;20052;-78
2023/01/22 12:56:55;;;;;;;4.90;1.90;;;;;;;7.82;28.29;92331.69;5011470;28;20041;-79
2023/01/22 12:59:31;;;;;;;4.60;2.15;;;;;;;8.11;28.03;92337.72;5011842;28;20037;-79
2023/01/22 13:02:10;;;;;;;4.75;2.08;;;;;;;7.72;28.29;92329.91;4991447;28;20073;-78
2023/01/22 13:04:37;;;;;;;4.05;1.73;;;;;;;7.77;28.43;92336.91;4969708;28;20085;-79
2023/01/22 13:07:28;;;;;;;3.47;2.03;;;;;;;7.42;30.02;92328.31;4991132;28;20030;-78
2023/01/22 13:10:23;;;;;;;4.53;2.17;;;;;;;6.67;30.61;92339.59;4988691;28;20056;-79
2023/01/22 13:12:52;;;;;;;7.25;2.30;;;;;;;6.94;29.46;92338.47;5010353;28;20687;-79
2023/01/22 13:15:36;;;;;;;2.58;1.60;;;;;;;6.94;29.24;92333.25;4995771;28;20092;-79
2023/01/22 13:18:04;;;;;;;5.70;2.38;;;;;;;6.99;29.85;92320.97;5011597;28;20037;-78
2023/01/22 13:20:44;;;;;;;5.10;2.67;;;;;;;7.25;29.72;92328.66;5014896;28;20570;-79
2023/01/22 13:23:12;;;;;;;5.22;2.35;;;;;;;7.54;29.42;92323.53;5006680;28;20041;-79
2023/01/22 13:25:38;;;;;;;4.10;2.17;;;;;;;7.32;29.54;92333.56;5012926;28;20065;-80
2023/01/22 13:28:04;;;;;;;3.42;1.60;;;;;;;7.17;29.40;92324.03;5012267;28;20538;-79
2023/01/22 13:30:31;;;;;;;7.82;2.40;;;;;;;6.81;29.62;92330.16;5011896;28;20064;-79
2023/01/22 13:33:11;;;;;;;3.90;2.20;;;;;;;6.86;30.48;92327.53;5010351;28;20336;-80
2023/01/22 13:35:41;;;;;;;4.63;2.20;;;;;;;6.78;30.48;92335.91;5015443;28;20044;-79
2023/01/22 13:38:15;;;;;;;5.43;2.15;;;;;;;6.95;29.91;92335.56;4994540;28;20633;-78
2023/01/22 13:40:41;;;;;;;4.75;2.30;;;;;;;7.15;29.79;92337.31;5011761;28;20038;-79
2023/01/22 13:43:06;;;;;;;6.55;2.40;;;;;;;7.46;29.79;92339.75;4994935;28;20141;-78
2023/01/22 13:45:32;;;;;;;5.93;2.35;;;;;;;7.51;30.37;92327.47;5011534;28;20401;-78
2023/01/22 13:48:01;;;;;;;4.85;2.50;;;;;;;7.74;29.63;92337.47;4997024;28;20431;-78
2023/01/22 13:50:30;;;;;;;4.72;2.20;;;;;;;7.84;28.85;92335.59;4999369;28;20050;-78
2023/01/22 13:52:59;;;;;;;4.70;2.30;;;;;;;7.91;28.99;92336.03;4996230;28;20050;-78
2023/01/22 13:55:26;;;;;;;4.90;2.38;;;;;;;8.31;28.99;92339.38;5007606;28;20076;-78
2023/01/22 13:57:54;;;;;;;5.45;2.45;;;;;;;8.43;28.31;92327.81;5000404;28;20381;-79
2023/01/22 14:00:31;;;;;;;5.75;2.30;;;;;;;8.71;28.16;92336.63;4995611;28;20049;-79
2023/01/22 14:02:57;;;;;;;5.55;2.90;;;;;;;8.65;28.48;92340.38;5002502;28;20042;-79
2023/01/22 14:05:26;;;;;;;4.80;2.08;;;;;;;8.30;28.53;92337.03;5018092;28;20061;-79
2023/01/22 14:08:07;;;;;;;8.90;3.15;;;;;;;8.25;29.39;92339.69;5036399;28;20491;-78
2023/01/22 14:10:33;;;;;;;5.88;2.50;;;;;;;8.63;28.36;92340.66;5005408;28;20492;-79
2023/01/22 14:13:08;;;;;;;4.75;2.60;;;;;;;8.45;28.31;92342.13;5005559;28;20054;-79
2023/01/22 14:15:34;;;;;;;5.45;2.50;;;;;;;8.27;29.15;92342.78;5020660;28;20057;-79
2023/01/22 14:18:10;;;;;;;5.63;2.55;;;;;;;8.31;28.77;92354.25;5019745;28;20050;-80
2023/01/22 14:20:40;;;;;;;10.73;3.45;;;;;;;8.30;28.78;92345.63;5033266;28;20454;-80
2023/01/22 14:23:06;;;;;;;22.40;6.47;;;;;;;8.58;28.49;92347.72;5019330;28;20065;-79
2023/01/22 14:25:36;;;;;;;13.80;4.43;;;;;;;8.85;27.96;92345.38;5008649;28;20608;-80
2023/01/22 14:28:02;;;;;;;14.45;5.40;;;;;;;8.73;27.75;92358.03;5000453;28;20054;-79
2023/01/22 14:30:48;;;;;;;6.00;2.70;;;;;;;8.60;28.68;92356.88;5003392;28;20039;-79
2023/01/22 14:33:19;;;;;;;4.38;2.40;;;;;;;8.47;27.86;92358.28;5019209;28;20163;-79
2023/01/22 14:35:45;;;;;;;4.88;2.50;;;;;;;8.42;27.85;92366.16;5018631;28;20053;-79
2023/01/22 14:38:11;;;;;;;5.63;2.78;;;;;;;8.41;29.56;92364.59;4989871;28;20038;-78
2023/01/22 14:40:36;;;;;;;5.00;2.33;;;;;;;8.41;28.76;92366.44;5008248;28;20508;-78
2023/01/22 14:43:02;;;;;;;6.38;2.33;;;;;;;8.79;28.47;92374.41;4989669;28;20557;-79
2023/01/22 14:45:28;;;;;;;24.75;9.90;;;;;;;8.98;28.81;92371.84;4995803;28;20093;-79
2023/01/22 14:47:53;;;;;;;17.42;6.28;;;;;;;8.91;28.07;92369.56;5016881;28;20551;-79
2023/01/22 14:50:20;;;;;;;5.97;2.92;;;;;;;8.85;28.72;92365.44;5007329;28;20043;-79
2023/01/22 14:52:53;;;;;;;19.70;6.43;;;;;;;8.82;29.04;92369.41;5006916;28;20034;-79
2023/01/22 14:55:21;;;;;;;33.10;11.68;;;;;;;8.57;28.61;92373.06;4979155;28;20081;-79
2023/01/22 14:57:46;;;;;;;6.10;2.85;;;;;;;8.78;28.09;92373.66;4998913;28;20412;-79
2023/01/22 15:00:15;;;;;;;6.95;3.22;;;;;;;8.60;27.58;92375.13;5014560;28;20443;-79
2023/01/22 15:02:41;;;;;;;4.53;2.53;;;;;;;8.25;28.11;92376.97;5017816;28;20112;-78
2023/01/22 15:05:07;;;;;;;5.50;2.72;;;;;;;8.06;29.18;92381.28;5021588;28;20053;-78
2023/01/22 15:07:33;;;;;;;14.90;7.50;;;;;;;8.28;29.43;92380.84;5019277;28;20076;-79
2023/01/22 15:10:00;;;;;;;17.13;7.00;;;;;;;8.41;29.54;92377.63;4996613;28;20058;-79
2023/01/22 15:12:26;;;;;;;11.75;5.15;;;;;;;8.37;30.48;92384.41;5013114;28;20042;-79
2023/01/22 15:14:51;;;;;;;6.65;3.53;;;;;;;8.22;29.64;92387.16;5014266;28;20057;-79
2023/01/22 15:17:18;;;;;;;8.63;4.15;;;;;;;9.57;27.64;92383.69;4992444;28;20049;-79
2023/01/22 15:19:43;;;;;;;5.72;3.05;;;;;;;10.33;26.40;92383.63;5012881;28;20054;-79
2023/01/22 15:22:11;;;;;;;5.22;2.80;;;;;;;9.26;27.27;92386.66;4997254;28;20044;-78
2023/01/22 15:24:38;;;;;;;7.43;3.30;;;;;;;8.17;29.21;92384.59;5011567;28;20058;-79